createdAt,value
2018-05-10T00:00:33.908Z,63
2018-05-10T00:01:35.949Z,63
2018-05-10T00:02:37.996Z,63
2018-05-10T00:03:40.041Z,63
2018-05-10T00:04:42.380Z,62
2018-05-10T00:05:44.441Z,63
2018-05-10T00:06:46.478Z,63
2018-05-10T00:07:49.777Z,62
2018-05-10T00:08:51.816Z,62
2018-05-10T00:09:53.848Z,62
2018-05-10T00:10:55.906Z,62
2018-05-10T00:11:57.950Z,62
2018-05-10T00:12:59.999Z,61
2018-05-10T00:14:02.431Z,62
2018-05-10T00:15:04.849Z,61
2018-05-10T00:16:07.579Z,61
2018-05-10T00:17:09.632Z,61
2018-05-10T00:18:11.670Z,61
2018-05-10T00:19:13.721Z,61
2018-05-10T00:20:15.773Z,61
2018-05-10T00:21:17.831Z,61
2018-05-10T00:22:19.863Z,61
2018-05-10T00:23:21.913Z,62
2018-05-10T00:24:23.987Z,62
2018-05-10T00:25:26.006Z,62
2018-05-10T00:26:28.071Z,62
2018-05-10T00:27:30.118Z,62
2018-05-10T00:28:32.164Z,62
2018-05-10T00:29:34.216Z,62
2018-05-10T00:30:36.268Z,62
2018-05-10T00:31:38.582Z,62
2018-05-10T00:32:41.024Z,62
2018-05-10T00:33:43.064Z,63
2018-05-10T00:34:45.139Z,63
2018-05-10T00:35:47.152Z,63
2018-05-10T00:36:49.197Z,63
2018-05-10T00:37:51.250Z,63
2018-05-10T00:38:53.566Z,63
2018-05-10T00:39:55.638Z,63
2018-05-10T00:40:57.690Z,63
2018-05-10T00:41:59.734Z,63
2018-05-10T00:43:01.784Z,63
2018-05-10T00:44:03.830Z,63
2018-05-10T00:45:05.870Z,63
2018-05-10T00:46:07.923Z,63
2018-05-10T00:47:09.962Z,64
2018-05-10T00:48:12.016Z,63
2018-05-10T00:49:14.063Z,64
2018-05-10T00:50:16.473Z,64
2018-05-10T00:51:18.525Z,64
2018-05-10T00:52:20.560Z,64
2018-05-10T00:53:22.920Z,63
2018-05-10T00:54:24.966Z,63
2018-05-10T00:55:27.016Z,63
2018-05-10T00:56:29.459Z,63
2018-05-10T00:57:31.493Z,63
2018-05-10T00:58:33.538Z,63
2018-05-10T00:59:35.689Z,64
2018-05-10T01:00:37.729Z,64
2018-05-10T01:01:40.063Z,64
2018-05-10T01:02:42.102Z,64
2018-05-10T01:03:44.440Z,64
2018-05-10T01:04:46.934Z,64
2018-05-10T01:05:48.956Z,64
2018-05-10T01:06:50.986Z,64
2018-05-10T01:07:53.317Z,64
2018-05-10T01:08:55.367Z,64
2018-05-10T01:09:57.802Z,64
2018-05-10T01:10:59.842Z,64
2018-05-10T01:12:01.888Z,64
2018-05-10T01:13:04.318Z,64
2018-05-10T01:14:06.430Z,64
2018-05-10T01:15:08.461Z,64
2018-05-10T01:16:10.520Z,64
2018-05-10T01:17:12.562Z,64
2018-05-10T01:18:14.604Z,64
2018-05-10T01:19:16.930Z,64
2018-05-10T01:20:19.370Z,64
2018-05-10T01:21:21.707Z,64
2018-05-10T01:22:23.752Z,64
2018-05-10T01:23:26.086Z,64
2018-05-10T01:24:28.128Z,64
2018-05-10T01:25:30.185Z,64
2018-05-10T01:26:32.226Z,64
2018-05-10T01:27:34.655Z,64
2018-05-10T01:28:36.715Z,64
2018-05-10T01:29:38.754Z,64
2018-05-10T01:30:40.789Z,64
2018-05-10T01:31:42.832Z,64
2018-05-10T01:32:45.261Z,64
2018-05-10T01:33:47.306Z,64
2018-05-10T01:34:49.820Z,64
2018-05-10T01:35:52.155Z,64
2018-05-10T01:36:54.496Z,64
2018-05-10T01:37:56.809Z,64
2018-05-10T01:38:58.851Z,64
2018-05-10T01:40:01.233Z,63
2018-05-10T01:41:03.295Z,63
2018-05-10T01:42:05.747Z,63
2018-05-10T01:43:08.100Z,63
2018-05-10T01:44:10.155Z,63
2018-05-10T01:45:12.509Z,64
2018-05-10T01:46:14.561Z,64
2018-05-10T01:47:16.597Z,64
2018-05-10T01:48:18.936Z,64
2018-05-10T01:49:21.676Z,64
2018-05-10T01:50:23.715Z,64
2018-05-10T01:51:25.775Z,64
2018-05-10T01:52:27.808Z,64
2018-05-10T01:53:29.866Z,64
2018-05-10T01:54:32.187Z,64
2018-05-10T01:55:34.617Z,64
2018-05-10T01:56:36.683Z,64
2018-05-10T01:57:38.712Z,64
2018-05-10T01:58:40.762Z,64
2018-05-10T01:59:42.803Z,64
2018-05-10T02:00:44.840Z,64
2018-05-10T02:01:46.882Z,64
2018-05-10T02:02:48.914Z,64
2018-05-10T02:03:50.976Z,64
2018-05-10T02:04:53.014Z,64
2018-05-10T02:05:55.064Z,64
2018-05-10T02:06:57.101Z,64
2018-05-10T02:07:59.435Z,64
2018-05-10T02:09:01.476Z,64
2018-05-10T02:10:03.536Z,64
2018-05-10T02:11:05.565Z,65
2018-05-10T02:12:07.609Z,65
2018-05-10T02:13:09.649Z,65
2018-05-10T02:14:11.700Z,65
2018-05-10T02:15:13.747Z,66
2018-05-10T02:16:15.789Z,66
2018-05-10T02:17:17.829Z,66
2018-05-10T02:18:19.876Z,65
2018-05-10T02:19:21.920Z,66
2018-05-10T02:20:23.972Z,65
2018-05-10T02:21:26.050Z,65
2018-05-10T02:22:28.069Z,65
2018-05-10T02:23:30.121Z,65
2018-05-10T02:24:32.455Z,65
2018-05-10T02:25:34.789Z,65
2018-05-10T02:26:37.118Z,65
2018-05-10T02:27:39.160Z,65
2018-05-10T02:28:41.492Z,65
2018-05-10T02:29:43.943Z,65
2018-05-10T02:30:46.270Z,65
2018-05-10T02:31:48.310Z,65
2018-05-10T02:32:50.352Z,64
2018-05-10T02:33:52.698Z,65
2018-05-10T02:34:54.750Z,65
2018-05-10T02:35:57.080Z,65
2018-05-10T02:36:59.422Z,65
2018-05-10T02:38:01.753Z,65
2018-05-10T02:39:03.794Z,65
2018-05-10T02:40:06.225Z,65
2018-05-10T02:41:08.273Z,65
2018-05-10T02:42:10.308Z,65
2018-05-10T02:43:12.657Z,65
2018-05-10T02:44:14.732Z,65
2018-05-10T02:45:17.063Z,65
2018-05-10T02:46:19.496Z,65
2018-05-10T02:47:21.943Z,64
2018-05-10T02:48:24.380Z,65
2018-05-10T02:49:26.442Z,65
2018-05-10T02:50:28.481Z,65
2018-05-10T02:51:30.539Z,65
2018-05-10T02:52:32.575Z,64
2018-05-10T02:53:34.628Z,65
2018-05-10T02:54:37.074Z,65
2018-05-10T02:55:39.508Z,65
2018-05-10T02:56:41.559Z,65
2018-05-10T02:57:43.605Z,65
2018-05-10T02:58:45.935Z,65
2018-05-10T02:59:47.994Z,65
2018-05-10T03:00:50.706Z,65
2018-05-10T03:01:53.044Z,65
2018-05-10T03:02:55.081Z,65
2018-05-10T03:03:57.120Z,65
2018-05-10T03:04:59.559Z,65
2018-05-10T03:06:01.605Z,65
2018-05-10T03:07:03.653Z,65
2018-05-10T03:08:05.688Z,65
2018-05-10T03:09:08.329Z,64
2018-05-10T03:10:10.371Z,65
2018-05-10T03:11:12.417Z,65
2018-05-10T03:12:14.480Z,66
2018-05-10T03:13:16.834Z,65
2018-05-10T03:14:18.874Z,66
2018-05-10T03:15:20.918Z,65
2018-05-10T03:16:22.950Z,65
2018-05-10T03:17:25.294Z,65
2018-05-10T03:18:27.337Z,65
2018-05-10T03:19:29.384Z,65
2018-05-10T03:20:31.421Z,66
2018-05-10T03:21:33.472Z,66
2018-05-10T03:22:35.508Z,66
2018-05-10T03:23:37.548Z,66
2018-05-10T03:24:39.998Z,66
2018-05-10T03:25:42.038Z,66
2018-05-10T03:26:44.359Z,66
2018-05-10T03:27:46.405Z,66
2018-05-10T03:28:48.445Z,66
2018-05-10T03:29:50.795Z,66
2018-05-10T03:30:53.445Z,66
2018-05-10T03:31:55.507Z,66
2018-05-10T03:32:57.832Z,67
2018-05-10T03:33:59.870Z,66
2018-05-10T03:35:01.913Z,67
2018-05-10T03:36:03.958Z,66
2018-05-10T03:37:06.004Z,66
2018-05-10T03:38:08.334Z,67
2018-05-10T03:39:10.375Z,67
2018-05-10T03:40:12.422Z,67
2018-05-10T03:41:14.467Z,67
2018-05-10T03:42:16.519Z,67
2018-05-10T03:43:18.578Z,67
2018-05-10T03:44:20.909Z,67
2018-05-10T03:45:23.229Z,67
2018-05-10T03:46:25.753Z,67
2018-05-10T03:47:27.796Z,67
2018-05-10T03:48:29.833Z,67
2018-05-10T03:49:31.877Z,68
2018-05-10T03:50:34.506Z,68
2018-05-10T03:51:36.543Z,68
2018-05-10T03:52:38.581Z,68
2018-05-10T03:53:40.622Z,68
2018-05-10T03:54:42.680Z,68
2018-05-10T03:55:44.733Z,68
2018-05-10T03:56:46.763Z,68
2018-05-10T03:57:48.819Z,68
2018-05-10T03:58:50.864Z,68
2018-05-10T03:59:52.898Z,68
2018-05-10T04:00:54.942Z,68
2018-05-10T04:01:56.983Z,68
2018-05-10T04:02:59.303Z,68
2018-05-10T04:04:01.342Z,68
2018-05-10T04:05:03.382Z,68
2018-05-10T04:06:05.523Z,68
2018-05-10T04:07:08.593Z,68
2018-05-10T04:08:10.639Z,68
2018-05-10T04:09:12.678Z,68
2018-05-10T04:10:14.729Z,68
2018-05-10T04:11:17.086Z,69
2018-05-10T04:12:19.133Z,69
2018-05-10T04:13:21.738Z,69
2018-05-10T04:14:23.793Z,69
2018-05-10T04:15:25.830Z,69
2018-05-10T04:16:27.857Z,69
2018-05-10T04:17:29.904Z,69
2018-05-10T04:18:32.247Z,69
2018-05-10T04:19:34.285Z,69
2018-05-10T04:20:36.331Z,69
2018-05-10T04:21:38.663Z,69
2018-05-10T04:22:41.576Z,69
2018-05-10T04:23:43.618Z,69
2018-05-10T04:24:45.661Z,69
2018-05-10T04:25:47.721Z,69
2018-05-10T04:26:49.763Z,69
2018-05-10T04:27:51.808Z,69
2018-05-10T04:28:53.845Z,69
2018-05-10T04:29:55.883Z,69
2018-05-10T04:30:57.929Z,69
2018-05-10T04:31:59.979Z,69
2018-05-10T04:33:02.035Z,69
2018-05-10T04:34:04.080Z,69
2018-05-10T04:35:06.414Z,69
2018-05-10T04:36:08.459Z,69
2018-05-10T04:37:10.880Z,69
2018-05-10T04:38:12.949Z,69
2018-05-10T04:39:14.978Z,69
2018-05-10T04:40:17.023Z,69
2018-05-10T04:41:19.460Z,69
2018-05-10T04:42:21.583Z,69
2018-05-10T04:43:23.828Z,69
2018-05-10T04:44:26.173Z,69
2018-05-10T04:45:28.219Z,69
2018-05-10T04:46:30.258Z,69
2018-05-10T04:47:32.284Z,69
2018-05-10T04:48:34.325Z,69
2018-05-10T04:49:36.686Z,69
2018-05-10T04:50:39.014Z,69
2018-05-10T04:51:41.055Z,69
2018-05-10T04:52:43.096Z,69
2018-05-10T04:53:45.141Z,69
2018-05-10T04:54:47.181Z,69
2018-05-10T04:55:49.549Z,69
2018-05-10T04:56:51.579Z,69
2018-05-10T04:57:53.615Z,69
2018-05-10T04:58:55.671Z,69
2018-05-10T04:59:57.703Z,69
2018-05-10T05:00:59.746Z,70
2018-05-10T05:02:01.796Z,70
2018-05-10T05:03:04.120Z,69
2018-05-10T05:04:06.164Z,69
2018-05-10T05:05:08.198Z,69
2018-05-10T05:06:10.252Z,69
2018-05-10T05:07:12.297Z,68
2018-05-10T05:08:14.722Z,69
2018-05-10T05:09:16.767Z,68
2018-05-10T05:10:18.804Z,69
2018-05-10T05:11:20.851Z,68
2018-05-10T05:12:22.893Z,68
2018-05-10T05:13:24.932Z,69
2018-05-10T05:14:26.975Z,68
2018-05-10T05:15:29.682Z,68
2018-05-10T05:16:31.715Z,68
2018-05-10T05:17:33.761Z,68
2018-05-10T05:18:35.802Z,68
2018-05-10T05:19:37.852Z,68
2018-05-10T05:20:39.880Z,68
2018-05-10T05:21:41.928Z,68
2018-05-10T05:22:44.248Z,68
2018-05-10T05:23:46.288Z,68
2018-05-10T05:24:48.326Z,68
2018-05-10T05:25:50.757Z,67
2018-05-10T05:26:53.164Z,67
2018-05-10T05:27:55.156Z,68
2018-05-10T05:28:57.199Z,67
2018-05-10T05:29:59.257Z,67
2018-05-10T05:31:01.302Z,67
2018-05-10T05:32:03.617Z,67
2018-05-10T05:33:05.670Z,67
2018-05-10T05:34:08.105Z,67
2018-05-10T05:35:10.148Z,67
2018-05-10T05:36:12.486Z,67
2018-05-10T05:37:14.526Z,68
2018-05-10T05:38:16.857Z,67
2018-05-10T05:39:18.919Z,67
2018-05-10T05:40:21.232Z,67
2018-05-10T05:41:23.691Z,67
2018-05-10T05:42:25.690Z,67
2018-05-10T05:43:28.311Z,67
2018-05-10T05:44:30.277Z,67
2018-05-10T05:45:32.318Z,67
2018-05-10T05:46:34.366Z,67
2018-05-10T05:47:36.400Z,67
2018-05-10T05:48:38.433Z,67
2018-05-10T05:49:40.483Z,67
2018-05-10T05:50:42.523Z,67
2018-05-10T05:51:44.572Z,67
2018-05-10T05:52:47.290Z,67
2018-05-10T05:53:49.331Z,67
2018-05-10T05:54:51.379Z,67
2018-05-10T05:55:53.415Z,67
2018-05-10T05:56:55.461Z,67
2018-05-10T05:57:57.504Z,67
2018-05-10T05:58:59.547Z,68
2018-05-10T06:00:01.584Z,68
2018-05-10T06:01:03.633Z,68
2018-05-10T06:02:05.677Z,68
2018-05-10T06:03:07.728Z,68
2018-05-10T06:04:09.769Z,68
2018-05-10T06:05:12.139Z,68
2018-05-10T06:06:14.828Z,67
2018-05-10T06:07:16.874Z,67
2018-05-10T06:08:18.911Z,67
2018-05-10T06:09:20.962Z,67
2018-05-10T06:10:22.992Z,68
2018-05-10T06:11:25.038Z,68
2018-05-10T06:12:27.082Z,67
2018-05-10T06:13:29.118Z,67
2018-05-10T06:14:31.165Z,67
2018-05-10T06:15:33.554Z,67
2018-05-10T06:16:35.564Z,67
2018-05-10T06:17:37.912Z,67
2018-05-10T06:18:39.944Z,67
2018-05-10T06:19:42.011Z,67
2018-05-10T06:20:44.332Z,66
2018-05-10T06:21:46.375Z,66
2018-05-10T06:22:48.421Z,66
2018-05-10T06:23:50.458Z,66
2018-05-10T06:24:53.307Z,66
2018-05-10T06:25:55.277Z,65
2018-05-10T06:26:57.589Z,64
2018-05-10T06:28:00.522Z,64
2018-05-10T06:29:03.128Z,64
2018-05-10T06:30:05.179Z,64
2018-05-10T06:31:07.237Z,65
2018-05-10T06:32:09.281Z,65
2018-05-10T06:33:11.328Z,64
2018-05-10T06:34:13.695Z,64
2018-05-10T06:35:15.736Z,64
2018-05-10T06:36:17.789Z,64
2018-05-10T06:37:19.819Z,64
2018-05-10T06:38:21.873Z,65
2018-05-10T06:39:24.228Z,65
2018-05-10T06:40:26.267Z,65
2018-05-10T06:41:28.819Z,65
2018-05-10T06:42:31.442Z,65
2018-05-10T06:43:33.485Z,65
2018-05-10T06:44:35.831Z,65
2018-05-10T06:45:38.448Z,65
2018-05-10T06:46:40.505Z,64
2018-05-10T06:47:42.835Z,64
2018-05-10T06:48:44.878Z,64
2018-05-10T06:49:46.925Z,64
2018-05-10T06:50:48.957Z,65
2018-05-10T06:51:51.390Z,64
2018-05-10T06:52:53.444Z,64
2018-05-10T06:53:55.876Z,64
2018-05-10T06:54:58.206Z,64
2018-05-10T06:56:00.243Z,64
2018-05-10T06:57:02.304Z,64
2018-05-10T06:58:04.342Z,64
2018-05-10T06:59:06.771Z,64
2018-05-10T07:00:08.828Z,64
2018-05-10T07:01:10.868Z,64
2018-05-10T07:02:12.902Z,63
2018-05-10T07:03:14.990Z,63
2018-05-10T07:04:16.996Z,64
2018-05-10T07:05:19.328Z,63
2018-05-10T07:06:21.375Z,63
2018-05-10T07:07:23.426Z,62
2018-05-10T07:08:25.479Z,62
2018-05-10T07:09:28.790Z,62
2018-05-10T07:10:30.694Z,61
2018-05-10T07:11:32.751Z,61
2018-05-10T07:12:34.784Z,61
2018-05-10T07:13:36.838Z,61
2018-05-10T07:14:38.881Z,61
2018-05-10T07:15:40.928Z,61
2018-05-10T07:16:43.250Z,61
2018-05-10T07:17:45.325Z,60
2018-05-10T07:18:47.670Z,61
2018-05-10T07:19:49.715Z,61
2018-05-10T07:20:51.753Z,61
2018-05-10T07:21:53.813Z,61
2018-05-10T07:22:55.851Z,60
2018-05-10T07:23:57.902Z,60
2018-05-10T07:24:59.932Z,60
2018-05-10T07:26:01.936Z,60
2018-05-10T07:27:03.944Z,60
2018-05-10T07:28:05.934Z,60
2018-05-10T07:29:07.948Z,60
2018-05-10T07:30:09.961Z,60
2018-05-10T07:31:11.964Z,59
2018-05-10T07:32:13.976Z,60
2018-05-10T07:33:15.988Z,59
2018-05-10T07:34:18.009Z,59
2018-05-10T07:35:20.002Z,60
2018-05-10T07:36:22.010Z,59
2018-05-10T07:37:24.026Z,59
2018-05-10T07:38:26.995Z,59
2018-05-10T07:39:29.003Z,59
2018-05-10T07:40:31.012Z,59
2018-05-10T07:41:33.014Z,59
2018-05-10T07:42:35.400Z,58
2018-05-10T07:43:37.407Z,59
2018-05-10T07:44:39.456Z,58
2018-05-10T07:45:41.746Z,58
2018-05-10T07:46:43.763Z,58
2018-05-10T07:47:45.762Z,58
2018-05-10T07:48:48.148Z,57
2018-05-10T07:49:50.166Z,57
2018-05-10T07:50:52.186Z,57
2018-05-10T07:51:54.475Z,57
2018-05-10T07:52:56.485Z,56
2018-05-10T07:53:58.782Z,56
2018-05-10T07:55:00.785Z,57
2018-05-10T07:56:03.070Z,56
2018-05-10T07:57:05.369Z,56
2018-05-10T07:58:07.394Z,56
2018-05-10T07:59:09.685Z,55
2018-05-10T08:00:11.688Z,55
2018-05-10T08:01:13.696Z,55
2018-05-10T08:02:15.854Z,55
2018-05-10T08:03:17.723Z,55
2018-05-10T08:04:19.736Z,55
2018-05-10T08:05:22.299Z,56
2018-05-10T08:06:24.308Z,55
2018-05-10T08:07:26.324Z,56
2018-05-10T08:08:28.327Z,55
2018-05-10T08:09:30.329Z,55
2018-05-10T08:10:32.346Z,55
2018-05-10T08:11:34.733Z,55
2018-05-10T08:12:36.736Z,55
2018-05-10T08:13:39.130Z,55
2018-05-10T08:14:41.135Z,55
2018-05-10T08:15:43.142Z,55
2018-05-10T08:16:45.157Z,54
2018-05-10T08:17:47.166Z,54
2018-05-10T08:18:49.563Z,54
2018-05-10T08:19:51.575Z,54
2018-05-10T08:20:53.881Z,54
2018-05-10T08:21:55.898Z,54
2018-05-10T08:22:57.983Z,54
2018-05-10T08:23:59.908Z,54
2018-05-10T08:25:01.926Z,53
2018-05-10T08:26:03.935Z,53
2018-05-10T08:27:06.225Z,53
2018-05-10T08:28:08.238Z,53
2018-05-10T08:29:10.245Z,53
2018-05-10T08:30:12.291Z,53
2018-05-10T08:31:14.676Z,52
2018-05-10T08:32:16.706Z,52
2018-05-10T08:33:18.700Z,51
2018-05-10T08:34:20.708Z,52
2018-05-10T08:35:22.719Z,52
2018-05-10T08:36:24.738Z,52
2018-05-10T08:37:27.116Z,53
2018-05-10T08:38:29.123Z,53
2018-05-10T08:39:31.118Z,54
2018-05-10T08:40:33.138Z,54
2018-05-10T08:41:35.163Z,54
2018-05-10T08:42:37.167Z,54
2018-05-10T08:43:39.180Z,54
2018-05-10T08:44:41.185Z,54
2018-05-10T08:45:43.202Z,54
2018-05-10T08:46:45.203Z,55
2018-05-10T08:47:47.501Z,55
2018-05-10T08:48:49.903Z,54
2018-05-10T08:49:51.908Z,55
2018-05-10T08:50:54.309Z,56
2018-05-10T08:51:56.898Z,54
2018-05-10T08:52:59.611Z,54
2018-05-10T08:54:01.641Z,55
2018-05-10T08:55:03.649Z,54
2018-05-10T08:56:05.948Z,54
2018-05-10T08:57:07.957Z,54
2018-05-10T08:58:09.948Z,54
2018-05-10T08:59:11.972Z,54
2018-05-10T09:00:13.976Z,53
2018-05-10T09:01:15.981Z,51
2018-05-10T09:02:17.989Z,51
2018-05-10T09:03:20.305Z,51
2018-05-10T09:04:22.314Z,50
2018-05-10T09:05:24.320Z,51
2018-05-10T09:06:26.332Z,52
2018-05-10T09:07:28.399Z,50
2018-05-10T09:08:30.695Z,50
2018-05-10T09:09:32.728Z,51
2018-05-10T09:10:34.735Z,50
2018-05-10T09:11:36.752Z,51
2018-05-10T09:12:38.764Z,49
2018-05-10T09:13:40.778Z,50
2018-05-10T09:14:43.095Z,50
2018-05-10T09:15:46.168Z,48
2018-05-10T09:16:48.179Z,48
2018-05-10T09:17:50.188Z,48
2018-05-10T09:18:52.196Z,49
2018-05-10T09:19:54.499Z,48
2018-05-10T09:20:56.502Z,48
2018-05-10T09:21:58.798Z,48
2018-05-10T09:23:00.802Z,47
2018-05-10T09:24:02.826Z,48
2018-05-10T09:25:04.835Z,47
2018-05-10T09:26:06.853Z,47
2018-05-10T09:27:08.849Z,47
2018-05-10T09:28:10.864Z,48
2018-05-10T09:29:12.868Z,48
2018-05-10T09:30:14.885Z,47
2018-05-10T09:31:16.914Z,47
2018-05-10T09:32:19.585Z,47
2018-05-10T09:33:21.590Z,48
2018-05-10T09:34:23.599Z,46
2018-05-10T09:35:25.646Z,46
2018-05-10T09:36:28.340Z,46
2018-05-10T09:37:30.346Z,45
2018-05-10T09:38:32.376Z,45
2018-05-10T09:39:34.761Z,46
2018-05-10T09:40:37.159Z,45
2018-05-10T09:41:39.177Z,45
2018-05-10T09:42:41.183Z,47
2018-05-10T09:43:43.234Z,46
2018-05-10T09:44:45.313Z,44
2018-05-10T09:45:47.295Z,45
2018-05-10T09:46:49.325Z,45
2018-05-10T09:47:51.621Z,44
2018-05-10T09:48:53.653Z,45
2018-05-10T09:49:55.948Z,45
2018-05-10T09:50:58.239Z,44
2018-05-10T09:52:00.640Z,43
2018-05-10T09:53:02.647Z,44
2018-05-10T09:54:04.668Z,43
2018-05-10T09:55:06.975Z,45
2018-05-10T09:56:08.989Z,43
2018-05-10T09:57:11.661Z,43
2018-05-10T09:58:13.681Z,43
2018-05-10T09:59:16.085Z,43
2018-05-10T10:00:18.104Z,43
2018-05-10T10:01:21.107Z,42
2018-05-10T10:02:23.114Z,43
2018-05-10T10:03:25.121Z,43
2018-05-10T10:04:27.531Z,42
2018-05-10T10:05:29.537Z,43
2018-05-10T10:06:31.559Z,42
2018-05-10T10:07:33.577Z,43
2018-05-10T10:08:35.598Z,43
2018-05-10T10:09:37.616Z,43
2018-05-10T10:10:39.629Z,43
2018-05-10T10:11:41.719Z,42
2018-05-10T10:12:43.673Z,42
2018-05-10T10:13:45.670Z,42
2018-05-10T10:14:47.690Z,42
2018-05-10T10:15:49.747Z,41
2018-05-10T10:16:51.718Z,42
2018-05-10T10:17:53.733Z,42
2018-05-10T10:18:55.765Z,42
2018-05-10T10:19:57.771Z,42
2018-05-10T10:20:59.785Z,42
2018-05-10T10:22:02.080Z,41
2018-05-10T10:23:04.085Z,42
2018-05-10T10:24:06.101Z,42
2018-05-10T10:25:08.536Z,42
2018-05-10T10:26:11.166Z,41
2018-05-10T10:27:13.472Z,42
2018-05-10T10:28:15.478Z,41
2018-05-10T10:29:17.792Z,41
2018-05-10T10:30:19.808Z,41
2018-05-10T10:31:21.826Z,42
2018-05-10T10:32:23.865Z,42
2018-05-10T10:33:26.257Z,42
2018-05-10T10:34:28.321Z,42
2018-05-10T10:35:30.290Z,41
2018-05-10T10:36:32.594Z,41
2018-05-10T10:37:34.886Z,41
2018-05-10T10:38:37.194Z,41
2018-05-10T10:39:39.215Z,41
2018-05-10T10:40:41.230Z,42
2018-05-10T10:41:43.527Z,41
2018-05-10T10:42:45.536Z,41
2018-05-10T10:43:47.944Z,40
2018-05-10T10:44:50.328Z,40
2018-05-10T10:45:53.019Z,40
2018-05-10T10:46:55.052Z,40
2018-05-10T10:47:57.066Z,40
2018-05-10T10:48:59.362Z,40
2018-05-10T10:50:01.382Z,43
2018-05-10T10:51:03.988Z,42
2018-05-10T10:52:06.005Z,41
2018-05-10T10:53:08.010Z,40
2018-05-10T10:54:10.037Z,39
2018-05-10T10:55:12.059Z,39
2018-05-10T10:56:14.078Z,39
2018-05-10T10:57:16.092Z,39
2018-05-10T10:58:18.110Z,40
2018-05-10T10:59:20.123Z,40
2018-05-10T11:00:22.136Z,39
2018-05-10T11:01:24.149Z,40
2018-05-10T11:02:26.173Z,38
2018-05-10T11:03:28.185Z,39
2018-05-10T11:04:30.195Z,39
2018-05-10T11:05:32.216Z,38
2018-05-10T11:06:34.234Z,38
2018-05-10T11:07:36.257Z,39
2018-05-10T11:08:38.264Z,38
2018-05-10T11:09:40.565Z,38
2018-05-10T11:10:42.855Z,38
2018-05-10T11:11:44.874Z,39
2018-05-10T11:12:46.895Z,39
2018-05-10T11:13:49.189Z,38
2018-05-10T11:14:51.207Z,38
2018-05-10T11:15:53.238Z,39
2018-05-10T11:16:55.241Z,37
2018-05-10T11:17:57.569Z,37
2018-05-10T11:18:59.580Z,38
2018-05-10T11:20:01.603Z,38
2018-05-10T11:21:03.635Z,38
2018-05-10T11:22:06.028Z,38
2018-05-10T11:23:08.352Z,37
2018-05-10T11:24:10.367Z,39
2018-05-10T11:25:12.370Z,39
2018-05-10T11:26:14.395Z,37
2018-05-10T11:27:16.505Z,37
2018-05-10T11:28:18.826Z,36
2018-05-10T11:29:20.849Z,37
2018-05-10T11:30:22.861Z,37
2018-05-10T11:31:24.878Z,37
2018-05-10T11:32:27.183Z,38
2018-05-10T11:33:29.197Z,38
2018-05-10T11:34:31.227Z,38
2018-05-10T11:35:33.241Z,38
2018-05-10T11:36:35.261Z,38
2018-05-10T11:37:37.575Z,39
2018-05-10T11:38:39.592Z,39
2018-05-10T11:39:41.658Z,40
2018-05-10T11:40:43.676Z,39
2018-05-10T11:41:45.696Z,41
2018-05-10T11:42:47.721Z,40
2018-05-10T11:43:49.781Z,39
2018-05-10T11:44:52.157Z,40
2018-05-10T11:45:54.270Z,40
2018-05-10T11:46:57.281Z,40
2018-05-10T11:47:59.357Z,40
2018-05-10T11:49:01.367Z,41
2018-05-10T11:50:03.448Z,42
2018-05-10T11:51:05.572Z,41
2018-05-10T11:52:07.927Z,41
2018-05-10T11:53:10.259Z,41
2018-05-10T11:54:12.276Z,41
2018-05-10T11:55:14.615Z,41
2018-05-10T11:56:16.635Z,41
2018-05-10T11:57:18.914Z,40
2018-05-10T11:58:20.891Z,39
2018-05-10T11:59:23.348Z,40
2018-05-10T12:00:25.453Z,40
2018-05-10T12:01:27.816Z,40
2018-05-10T12:02:30.084Z,41
2018-05-10T12:03:32.014Z,40
2018-05-10T12:04:34.235Z,40
2018-05-10T12:05:36.251Z,40
2018-05-10T12:06:38.272Z,41
2018-05-10T12:07:40.384Z,40
2018-05-10T12:08:42.394Z,40
2018-05-10T12:09:44.629Z,40
2018-05-10T12:10:46.639Z,41
2018-05-10T12:11:48.674Z,40
2018-05-10T12:12:51.021Z,41
2018-05-10T12:13:53.031Z,40
2018-05-10T12:14:55.084Z,40
2018-05-10T12:15:57.400Z,39
2018-05-10T12:16:59.409Z,38
2018-05-10T12:18:02.026Z,38
2018-05-10T12:19:04.446Z,37
2018-05-10T12:20:08.377Z,38
2018-05-10T12:21:10.842Z,38
2018-05-10T12:22:12.942Z,37
2018-05-10T12:23:15.011Z,37
2018-05-10T12:24:17.127Z,37
2018-05-10T12:25:19.142Z,37
2018-05-10T12:26:21.279Z,36
2018-05-10T12:27:23.308Z,36
2018-05-10T12:28:25.326Z,37
2018-05-10T12:29:27.361Z,36
2018-05-10T12:30:29.869Z,36
2018-05-10T12:31:31.848Z,36
2018-05-10T12:32:33.919Z,37
2018-05-10T12:33:35.984Z,37
2018-05-10T12:34:38.355Z,36
2018-05-10T12:35:40.739Z,36
2018-05-10T12:36:42.793Z,36
2018-05-10T12:37:44.810Z,36
2018-05-10T12:38:46.824Z,35
2018-05-10T12:39:48.850Z,35
2018-05-10T12:40:51.133Z,36
2018-05-10T12:41:53.433Z,35
2018-05-10T12:42:55.450Z,36
2018-05-10T12:43:57.467Z,36
2018-05-10T12:44:59.488Z,36
2018-05-10T12:46:01.499Z,36
2018-05-10T12:47:03.515Z,37
2018-05-10T12:48:05.530Z,36
2018-05-10T12:49:07.831Z,37
2018-05-10T12:50:09.863Z,37
2018-05-10T12:51:11.877Z,37
2018-05-10T12:52:14.265Z,37
2018-05-10T12:53:16.282Z,35
2018-05-10T12:54:18.298Z,35
2018-05-10T12:55:20.320Z,35
2018-05-10T12:56:22.525Z,35
2018-05-10T12:57:25.018Z,35
2018-05-10T12:58:27.323Z,35
2018-05-10T12:59:29.718Z,35
2018-05-10T13:00:31.725Z,35
2018-05-10T13:01:33.747Z,34
2018-05-10T13:02:36.149Z,34
2018-05-10T13:03:38.174Z,35
2018-05-10T13:04:40.183Z,35
2018-05-10T13:05:42.195Z,36
2018-05-10T13:06:44.283Z,36
2018-05-10T13:07:46.223Z,37
2018-05-10T13:08:48.519Z,36
2018-05-10T13:09:50.954Z,35
2018-05-10T13:10:53.355Z,35
2018-05-10T13:11:55.385Z,35
2018-05-10T13:12:57.397Z,35
2018-05-10T13:13:59.420Z,33
2018-05-10T13:15:01.439Z,34
2018-05-10T13:16:03.808Z,35
2018-05-10T13:17:06.136Z,35
2018-05-10T13:18:08.150Z,34
2018-05-10T13:19:10.171Z,34
2018-05-10T13:20:12.192Z,34
2018-05-10T13:21:14.537Z,33
2018-05-10T13:22:16.560Z,33
2018-05-10T13:23:18.587Z,33
2018-05-10T13:24:20.803Z,33
2018-05-10T13:25:22.920Z,32
2018-05-10T13:26:24.934Z,33
2018-05-10T13:27:27.535Z,32
2018-05-10T13:28:29.555Z,33
2018-05-10T13:29:31.581Z,33
2018-05-10T13:30:33.658Z,34
2018-05-10T13:31:35.767Z,34
2018-05-10T13:32:37.770Z,34
2018-05-10T13:33:39.798Z,34
2018-05-10T13:34:41.809Z,34
2018-05-10T13:35:43.820Z,35
2018-05-10T13:36:45.836Z,35
2018-05-10T13:37:47.857Z,35
2018-05-10T13:38:50.269Z,35
2018-05-10T13:39:52.276Z,36
2018-05-10T13:40:54.292Z,35
2018-05-10T13:41:56.314Z,36
2018-05-10T13:42:58.708Z,35
2018-05-10T13:44:00.718Z,35
2018-05-10T13:45:02.742Z,34
2018-05-10T13:46:05.164Z,34
2018-05-10T13:47:07.593Z,34
2018-05-10T13:48:09.471Z,34
2018-05-10T13:49:11.487Z,34
2018-05-10T13:50:13.514Z,34
2018-05-10T13:51:15.819Z,35
2018-05-10T13:52:17.832Z,35
2018-05-10T13:53:19.857Z,35
2018-05-10T13:54:21.867Z,35
2018-05-10T13:55:23.883Z,35
2018-05-10T13:56:25.903Z,35
2018-05-10T13:57:27.909Z,35
2018-05-10T13:58:29.924Z,34
2018-05-10T13:59:32.330Z,34
2018-05-10T14:00:34.347Z,35
2018-05-10T14:01:36.368Z,35
2018-05-10T14:02:38.382Z,34
2018-05-10T14:03:41.073Z,35
2018-05-10T14:04:43.084Z,35
2018-05-10T14:05:45.094Z,35
2018-05-10T14:06:47.107Z,36
2018-05-10T14:07:49.135Z,36
2018-05-10T14:08:51.434Z,37
2018-05-10T14:09:53.838Z,37
2018-05-10T14:10:55.905Z,38
2018-05-10T14:11:57.875Z,38
2018-05-10T14:12:59.869Z,39
2018-05-10T14:14:01.891Z,39
2018-05-10T14:15:03.918Z,40
2018-05-10T14:16:05.942Z,40
2018-05-10T14:17:07.961Z,41
2018-05-10T14:18:09.988Z,40
2018-05-10T14:19:12.383Z,41
2018-05-10T14:20:14.399Z,41
2018-05-10T14:21:16.418Z,41
2018-05-10T14:22:18.435Z,42
2018-05-10T14:23:20.449Z,42
2018-05-10T14:24:22.458Z,42
2018-05-10T14:25:24.477Z,42
2018-05-10T14:26:26.479Z,42
2018-05-10T14:27:28.884Z,43
2018-05-10T14:28:30.897Z,43
2018-05-10T14:29:32.920Z,43
2018-05-10T14:30:34.939Z,43
2018-05-10T14:31:36.955Z,43
2018-05-10T14:32:39.585Z,44
2018-05-10T14:33:41.586Z,44
2018-05-10T14:34:43.588Z,45
2018-05-10T14:35:45.615Z,44
2018-05-10T14:36:47.621Z,44
2018-05-10T14:37:49.638Z,44
2018-05-10T14:38:51.649Z,44
2018-05-10T14:39:53.655Z,44
2018-05-10T14:40:55.663Z,44
2018-05-10T14:41:57.673Z,45
2018-05-10T14:42:59.680Z,45
2018-05-10T14:44:01.698Z,45
2018-05-10T14:45:04.129Z,45
2018-05-10T14:46:06.142Z,45